createdAt,value
2019-02-16T00:00:19.957Z,57.16
2019-02-16T00:00:58.543Z,56.99
2019-02-16T00:01:32.891Z,57.00
2019-02-16T00:02:07.251Z,57.05
2019-02-16T00:02:41.841Z,57.05
2019-02-16T00:03:16.525Z,57.11
2019-02-16T00:03:50.902Z,57.53
2019-02-16T00:04:25.244Z,57.53
2019-02-16T00:04:59.589Z,57.37
2019-02-16T00:05:33.916Z,57.47
2019-02-16T00:06:08.255Z,57.47
2019-02-16T00:06:42.620Z,57.60
2019-02-16T00:07:17.049Z,57.67
2019-02-16T00:07:51.702Z,57.46
2019-02-16T00:08:26.352Z,57.46
2019-02-16T00:09:00.716Z,57.52
2019-02-16T00:09:35.077Z,57.33
2019-02-16T00:10:09.701Z,57.21
2019-02-16T00:10:44.308Z,57.21
2019-02-16T00:11:18.729Z,57.01
2019-02-16T00:11:53.041Z,57.14
2019-02-16T00:12:27.938Z,57.06
2019-02-16T00:13:02.294Z,57.06
2019-02-16T00:13:36.685Z,57.00
2019-02-16T00:14:11.050Z,57.08
2019-02-16T00:14:45.536Z,57.01
2019-02-16T00:15:19.876Z,56.83
2019-02-16T00:15:54.239Z,56.98
2019-02-16T00:16:28.830Z,56.88
2019-02-16T00:17:03.171Z,56.89
2019-02-16T00:17:37.510Z,57.00
2019-02-16T00:18:11.844Z,56.78
2019-02-16T00:18:46.252Z,56.78
2019-02-16T00:19:21.262Z,56.78
2019-02-16T00:19:55.615Z,56.92
2019-02-16T00:20:29.964Z,57.09
2019-02-16T00:21:04.527Z,57.02
2019-02-16T00:21:38.872Z,57.05
2019-02-16T00:22:13.518Z,57.12
2019-02-16T00:22:48.068Z,56.94
2019-02-16T00:23:22.703Z,56.89
2019-02-16T00:23:57.444Z,57.02
2019-02-16T00:24:31.772Z,57.14
2019-02-16T00:25:06.242Z,57.25
2019-02-16T00:25:40.574Z,57.62
2019-02-16T00:26:15.526Z,57.62
2019-02-16T00:26:49.947Z,57.87
2019-02-16T00:27:24.268Z,57.87
2019-02-16T00:27:59.533Z,57.52
2019-02-16T00:28:33.924Z,57.52
2019-02-16T00:29:08.581Z,57.59
2019-02-16T00:29:42.956Z,57.71
2019-02-16T00:30:17.566Z,57.94
2019-02-16T00:30:51.945Z,57.48
2019-02-16T00:31:26.292Z,57.49
2019-02-16T00:32:00.927Z,57.56
2019-02-16T00:32:35.455Z,57.42
2019-02-16T00:33:09.782Z,57.42
2019-02-16T00:33:44.197Z,57.73
2019-02-16T00:34:18.552Z,57.73
2019-02-16T00:34:53.194Z,57.81
2019-02-16T00:35:27.768Z,57.99
2019-02-16T00:36:02.101Z,57.99
2019-02-16T00:36:36.527Z,57.88
2019-02-16T00:37:11.110Z,57.90
2019-02-16T00:37:45.481Z,57.90
2019-02-16T00:38:19.921Z,57.82
2019-02-16T00:38:54.412Z,57.93
2019-02-16T00:39:28.712Z,58.05
2019-02-16T00:40:03.110Z,58.20
2019-02-16T00:40:37.446Z,58.01
2019-02-16T00:41:12.056Z,58.01
2019-02-16T00:41:46.666Z,58.03
2019-02-16T00:42:21.003Z,58.00
2019-02-16T00:42:55.334Z,57.98
2019-02-16T00:43:30.142Z,58.03
2019-02-16T00:44:04.756Z,58.14
2019-02-16T00:44:39.363Z,58.40
2019-02-16T00:45:13.772Z,58.42
2019-02-16T00:45:48.139Z,58.42
2019-02-16T00:46:22.757Z,58.59
2019-02-16T00:46:57.118Z,58.59
2019-02-16T00:47:31.697Z,58.65
2019-02-16T00:48:06.356Z,58.63
2019-02-16T00:48:41.055Z,58.63
2019-02-16T00:49:15.489Z,58.66
2019-02-16T00:49:49.869Z,58.66
2019-02-16T00:50:24.217Z,58.66
2019-02-16T00:50:58.833Z,58.66
2019-02-16T00:51:33.459Z,58.78
2019-02-16T00:52:08.213Z,58.71
2019-02-16T00:52:42.824Z,58.82
2019-02-16T00:53:17.442Z,58.88
2019-02-16T00:53:52.096Z,59.11
2019-02-16T00:54:26.497Z,59.11
2019-02-16T00:55:01.124Z,59.13
2019-02-16T00:55:35.439Z,59.13
2019-02-16T00:56:09.800Z,59.23
2019-02-16T00:56:44.138Z,59.08
2019-02-16T00:57:18.516Z,59.08
2019-02-16T00:57:52.903Z,59.14
2019-02-16T00:58:27.224Z,59.42
2019-02-16T00:59:01.593Z,59.35
2019-02-16T00:59:36.499Z,59.35
2019-02-16T01:00:11.426Z,59.45
2019-02-16T01:00:45.762Z,59.50
2019-02-16T01:01:20.113Z,59.49
2019-02-16T01:01:54.742Z,59.41
2019-02-16T01:02:29.311Z,59.41
2019-02-16T01:03:03.640Z,59.50
2019-02-16T01:03:38.045Z,59.47
2019-02-16T01:04:12.665Z,59.63
2019-02-16T01:04:47.317Z,59.74
2019-02-16T01:05:21.945Z,59.79
2019-02-16T01:05:56.847Z,59.82
2019-02-16T01:06:31.167Z,59.90
2019-02-16T01:07:05.489Z,59.90
2019-02-16T01:07:40.075Z,59.75
2019-02-16T01:08:14.757Z,59.77
2019-02-16T01:08:49.186Z,59.77
2019-02-16T01:09:23.702Z,59.98
2019-02-16T01:09:58.057Z,60.17
2019-02-16T01:10:32.666Z,60.34
2019-02-16T01:11:07.083Z,60.46
2019-02-16T01:11:41.425Z,60.46
2019-02-16T01:12:16.090Z,60.41
2019-02-16T01:12:51.015Z,60.45
2019-02-16T01:13:25.392Z,60.46
2019-02-16T01:14:00.298Z,60.41
2019-02-16T01:14:34.950Z,60.40
2019-02-16T01:15:10.121Z,60.48
2019-02-16T01:15:44.519Z,60.71
2019-02-16T01:16:19.213Z,60.60
2019-02-16T01:16:53.681Z,60.60
2019-02-16T01:17:28.021Z,60.65
2019-02-16T01:18:02.619Z,60.74
2019-02-16T01:18:37.025Z,60.80
2019-02-16T01:19:11.902Z,60.84
2019-02-16T01:19:46.238Z,60.88
2019-02-16T01:20:20.905Z,60.91
2019-02-16T01:20:55.232Z,60.96
2019-02-16T01:21:29.692Z,60.97
2019-02-16T01:22:04.040Z,61.10
2019-02-16T01:22:38.380Z,61.23
2019-02-16T01:23:12.744Z,61.34
2019-02-16T01:23:47.127Z,61.34
2019-02-16T01:24:21.746Z,61.41
2019-02-16T01:24:56.087Z,61.47
2019-02-16T01:25:30.433Z,61.55
2019-02-16T01:26:04.795Z,61.64
2019-02-16T01:26:39.129Z,61.60
2019-02-16T01:27:13.491Z,61.35
2019-02-16T01:27:48.071Z,61.26
2019-02-16T01:28:22.455Z,61.34
2019-02-16T01:28:56.842Z,61.47
2019-02-16T01:29:31.673Z,61.60
2019-02-16T01:30:08.282Z,61.61
2019-02-16T01:30:42.878Z,61.67
2019-02-16T01:31:17.483Z,61.68
2019-02-16T01:31:51.929Z,61.66
2019-02-16T01:32:26.514Z,61.68
2019-02-16T01:33:00.868Z,61.75
2019-02-16T01:33:35.205Z,61.76
2019-02-16T01:34:09.867Z,61.76
2019-02-16T01:34:44.260Z,61.91
2019-02-16T01:35:18.895Z,61.72
2019-02-16T01:35:53.356Z,61.72
2019-02-16T01:36:27.960Z,61.70
2019-02-16T01:37:03.473Z,61.74
2019-02-16T01:37:37.854Z,61.79
2019-02-16T01:38:12.505Z,61.86
2019-02-16T01:38:47.038Z,61.76
2019-02-16T01:39:21.553Z,61.78
2019-02-16T01:39:55.899Z,61.85
2019-02-16T01:40:30.541Z,61.88
2019-02-16T01:41:05.165Z,61.82
2019-02-16T01:41:40.242Z,61.75
2019-02-16T01:42:14.864Z,61.80
2019-02-16T01:42:49.569Z,61.91
2019-02-16T01:43:23.909Z,61.92
2019-02-16T01:43:58.297Z,61.96
2019-02-16T01:44:32.656Z,61.96
2019-02-16T01:45:08.345Z,62.14
2019-02-16T01:45:43.235Z,62.12
2019-02-16T01:46:17.923Z,62.09
2019-02-16T01:46:52.545Z,62.20
2019-02-16T01:47:27.415Z,62.20
2019-02-16T01:48:01.999Z,62.25
2019-02-16T01:48:36.656Z,62.12
2019-02-16T01:49:11.297Z,61.94
2019-02-16T01:49:45.637Z,61.80
2019-02-16T01:50:19.987Z,61.88
2019-02-16T01:50:54.318Z,62.02
2019-02-16T01:51:31.953Z,62.08
2019-02-16T01:52:04.921Z,62.17
2019-02-16T01:52:39.276Z,62.31
2019-02-16T01:53:13.907Z,62.30
2019-02-16T01:53:48.553Z,62.18
2019-02-16T01:54:22.937Z,62.45
2019-02-16T01:54:57.291Z,62.45
2019-02-16T01:55:31.906Z,62.27
2019-02-16T01:56:06.512Z,62.19
2019-02-16T01:56:41.179Z,62.31
2019-02-16T01:57:15.552Z,62.42
2019-02-16T01:57:50.169Z,62.42
2019-02-16T01:58:24.537Z,62.32
2019-02-16T01:58:59.276Z,62.38
2019-02-16T01:59:34.155Z,62.41
2019-02-16T02:00:10.697Z,62.36
2019-02-16T02:00:45.079Z,62.36
2019-02-16T02:01:19.477Z,62.23
2019-02-16T02:01:54.154Z,62.18
2019-02-16T02:02:28.746Z,62.30
2019-02-16T02:03:03.078Z,62.29
2019-02-16T02:03:37.427Z,62.30
2019-02-16T02:04:12.046Z,62.30
2019-02-16T02:04:46.780Z,62.26
2019-02-16T02:05:21.488Z,62.30
2019-02-16T02:05:56.180Z,62.29
2019-02-16T02:06:30.668Z,62.34
2019-02-16T02:07:05.454Z,62.33
2019-02-16T02:07:40.178Z,62.30
2019-02-16T02:08:14.933Z,62.31
2019-02-16T02:08:49.278Z,62.40
2019-02-16T02:09:23.909Z,62.50
2019-02-16T02:09:58.265Z,62.54
2019-02-16T02:10:32.904Z,62.62
2019-02-16T02:11:07.766Z,62.69
2019-02-16T02:11:42.118Z,62.63
2019-02-16T02:12:16.517Z,62.52
2019-02-16T02:12:50.910Z,62.53
2019-02-16T02:13:25.274Z,62.47
2019-02-16T02:13:59.629Z,62.52
2019-02-16T02:14:34.274Z,62.32
2019-02-16T02:15:09.135Z,62.21
2019-02-16T02:15:43.508Z,62.20
2019-02-16T02:16:17.889Z,62.18
2019-02-16T02:16:52.667Z,62.22
2019-02-16T02:17:27.299Z,62.22
2019-02-16T02:18:01.948Z,62.25
2019-02-16T02:18:36.275Z,62.21
2019-02-16T02:19:10.661Z,62.27
2019-02-16T02:19:45.143Z,62.30
2019-02-16T02:20:19.523Z,62.39
2019-02-16T02:20:53.951Z,62.54
2019-02-16T02:21:28.287Z,62.53
2019-02-16T02:22:02.675Z,62.61
2019-02-16T02:22:37.553Z,62.64
2019-02-16T02:23:11.898Z,62.65
2019-02-16T02:23:46.586Z,62.67
2019-02-16T02:24:21.244Z,62.77
2019-02-16T02:24:55.685Z,62.79
2019-02-16T02:25:30.565Z,62.84
2019-02-16T02:26:05.179Z,62.87
2019-02-16T02:26:39.788Z,62.93
2019-02-16T02:27:14.167Z,63.00
2019-02-16T02:27:48.529Z,63.05
2019-02-16T02:28:23.384Z,63.15
2019-02-16T02:28:58.063Z,63.30
2019-02-16T02:29:32.702Z,63.32
2019-02-16T02:30:08.081Z,63.09
2019-02-16T02:30:42.412Z,62.95
2019-02-16T02:31:16.831Z,62.95
2019-02-16T02:31:51.261Z,63.02
2019-02-16T02:32:25.983Z,63.06
2019-02-16T02:33:00.403Z,63.03
2019-02-16T02:33:34.729Z,63.05
2019-02-16T02:34:09.326Z,63.14
2019-02-16T02:34:43.989Z,63.15
2019-02-16T02:35:18.351Z,63.15
2019-02-16T02:35:52.709Z,63.12
2019-02-16T02:36:27.066Z,63.05
2019-02-16T02:37:01.649Z,63.03
2019-02-16T02:37:36.354Z,63.12
2019-02-16T02:38:11.278Z,63.20
2019-02-16T02:38:46.278Z,63.25
2019-02-16T02:39:21.255Z,63.35
2019-02-16T02:39:55.613Z,63.40
2019-02-16T02:40:29.949Z,63.20
2019-02-16T02:41:04.267Z,63.23
2019-02-16T02:41:38.890Z,63.33
2019-02-16T02:42:13.848Z,63.28
2019-02-16T02:42:48.195Z,63.25
2019-02-16T02:43:22.945Z,63.32
2019-02-16T02:43:57.538Z,63.33
2019-02-16T02:44:32.228Z,63.31
2019-02-16T02:45:07.736Z,63.31
2019-02-16T02:45:42.105Z,63.18
2019-02-16T02:46:16.527Z,63.12
2019-02-16T02:46:51.147Z,63.20
2019-02-16T02:47:25.496Z,63.23
2019-02-16T02:48:00.092Z,63.04
2019-02-16T02:48:35.072Z,62.92
2019-02-16T02:49:09.714Z,62.93
2019-02-16T02:49:44.425Z,62.86
2019-02-16T02:50:19.462Z,62.88
2019-02-16T02:50:53.864Z,62.88
2019-02-16T02:51:28.157Z,62.93
2019-02-16T02:52:02.820Z,62.99
2019-02-16T02:52:37.752Z,63.04
2019-02-16T02:53:12.377Z,63.07
2019-02-16T02:53:46.719Z,63.00
2019-02-16T02:54:21.125Z,63.01
2019-02-16T02:54:55.521Z,63.10
2019-02-16T02:55:29.874Z,63.23
2019-02-16T02:56:04.224Z,63.34
2019-02-16T02:56:38.833Z,63.56
2019-02-16T02:57:13.199Z,63.57
2019-02-16T02:57:47.602Z,63.60
2019-02-16T02:58:22.281Z,63.59
2019-02-16T02:58:56.630Z,63.61
2019-02-16T02:59:31.233Z,63.60
2019-02-16T03:00:06.423Z,63.65
2019-02-16T03:00:40.768Z,63.50
2019-02-16T03:01:15.176Z,63.51
2019-02-16T03:01:49.541Z,63.55
2019-02-16T03:02:24.166Z,63.63
2019-02-16T03:02:58.493Z,63.60
2019-02-16T03:03:33.071Z,63.53
2019-02-16T03:04:07.390Z,63.53
2019-02-16T03:04:41.757Z,63.54
2019-02-16T03:05:16.139Z,63.60
2019-02-16T03:05:50.522Z,63.68
2019-02-16T03:06:24.963Z,63.76
2019-02-16T03:06:59.852Z,63.83
2019-02-16T03:07:34.184Z,63.93
2019-02-16T03:08:08.767Z,63.98
2019-02-16T03:08:43.118Z,64.07
2019-02-16T03:09:17.576Z,64.19
2019-02-16T03:09:51.981Z,64.22
2019-02-16T03:10:26.320Z,64.16
2019-02-16T03:11:00.982Z,64.16
2019-02-16T03:11:35.565Z,64.09
2019-02-16T03:12:09.899Z,64.08
2019-02-16T03:12:44.552Z,64.06
2019-02-16T03:13:18.935Z,64.03
2019-02-16T03:13:53.856Z,63.95
2019-02-16T03:14:28.423Z,63.87
2019-02-16T03:15:03.188Z,63.90
2019-02-16T03:15:38.068Z,63.95
2019-02-16T03:16:12.398Z,64.02
2019-02-16T03:16:47.268Z,64.01
2019-02-16T03:17:21.689Z,63.99
2019-02-16T03:17:56.126Z,64.14
2019-02-16T03:18:30.745Z,64.24
2019-02-16T03:19:05.084Z,64.16
2019-02-16T03:19:39.437Z,64.10
2019-02-16T03:20:14.527Z,64.07
2019-02-16T03:20:48.977Z,64.05
2019-02-16T03:21:23.327Z,64.16
2019-02-16T03:22:02.836Z,64.38
2019-02-16T03:23:14.595Z,64.37
2019-02-16T03:23:49.026Z,64.37
2019-02-16T03:24:23.470Z,64.42
2019-02-16T03:24:58.393Z,64.39
2019-02-16T03:25:32.714Z,64.31
2019-02-16T03:26:32.314Z,64.29
2019-02-16T03:27:15.296Z,64.41
2019-02-16T03:28:26.643Z,64.35
2019-02-16T03:29:22.629Z,64.26
2019-02-16T03:30:12.706Z,64.37
2019-02-16T03:31:28.711Z,64.43
2019-02-16T03:32:53.388Z,64.10
2019-02-16T03:33:50.000Z,64.10
2019-02-16T03:34:28.793Z,64.36
2019-02-16T03:35:16.488Z,64.57
2019-02-16T03:36:14.488Z,64.68
2019-02-16T03:37:53.672Z,64.71
2019-02-16T03:39:21.154Z,64.86
2019-02-16T03:39:55.762Z,65.12
2019-02-16T03:40:30.438Z,65.12
2019-02-16T03:41:04.798Z,65.17
2019-02-16T03:41:39.105Z,65.15
2019-02-16T03:42:13.811Z,64.98
2019-02-16T03:42:48.532Z,64.86
2019-02-16T03:43:22.926Z,64.93
2019-02-16T03:43:57.261Z,64.92
2019-02-16T03:44:31.920Z,64.98
2019-02-16T03:45:06.716Z,65.02
2019-02-16T03:45:41.094Z,65.10
2019-02-16T03:46:15.775Z,65.10
2019-02-16T03:46:50.365Z,65.15
2019-02-16T03:47:24.769Z,65.04
2019-02-16T03:47:59.412Z,65.06
2019-02-16T03:48:33.738Z,65.11
2019-02-16T03:49:08.175Z,65.14
2019-02-16T03:49:42.778Z,65.08
2019-02-16T03:50:17.475Z,65.10
2019-02-16T03:50:51.856Z,65.15
2019-02-16T03:51:26.207Z,65.23
2019-02-16T03:52:00.544Z,65.28
2019-02-16T03:52:34.923Z,65.29
2019-02-16T03:53:09.246Z,65.19
2019-02-16T03:53:43.938Z,65.00
2019-02-16T03:54:18.287Z,64.97
2019-02-16T03:54:52.682Z,65.05
2019-02-16T03:55:27.668Z,65.06
2019-02-16T03:56:02.002Z,65.18
2019-02-16T03:56:36.625Z,65.29
2019-02-16T03:57:11.016Z,65.36
2019-02-16T03:57:45.928Z,65.43
2019-02-16T03:58:20.568Z,65.46
2019-02-16T03:58:54.915Z,65.36
2019-02-16T03:59:29.261Z,65.45
2019-02-16T04:00:03.992Z,65.47
2019-02-16T04:01:11.446Z,65.41
2019-02-16T04:01:45.908Z,65.25
2019-02-16T04:02:20.628Z,65.12
2019-02-16T04:02:55.229Z,65.09
2019-02-16T04:03:29.862Z,65.16
2019-02-16T04:04:04.200Z,65.26
2019-02-16T04:04:38.856Z,65.36
2019-02-16T04:05:13.219Z,65.38
2019-02-16T04:05:47.920Z,65.40
2019-02-16T04:06:22.293Z,65.44
2019-02-16T04:06:56.642Z,65.49
2019-02-16T04:07:31.360Z,65.39
2019-02-16T04:08:05.984Z,65.19
2019-02-16T04:08:40.317Z,65.24
2019-02-16T04:09:14.687Z,65.17
2019-02-16T04:09:49.086Z,65.13
2019-02-16T04:10:26.508Z,65.12
2019-02-16T04:11:01.120Z,65.18
2019-02-16T04:11:35.630Z,65.24
2019-02-16T04:12:10.221Z,65.40
2019-02-16T04:12:45.253Z,65.38
2019-02-16T04:13:19.900Z,65.38
2019-02-16T04:13:54.274Z,65.36
2019-02-16T04:14:28.888Z,65.37
2019-02-16T04:15:03.495Z,65.50
2019-02-16T04:15:38.730Z,65.52
2019-02-16T04:16:13.669Z,65.58
2019-02-16T04:16:48.295Z,65.55
2019-02-16T04:17:22.667Z,65.52
2019-02-16T04:17:57.302Z,65.62
2019-02-16T04:18:31.926Z,65.68
2019-02-16T04:19:06.352Z,65.76
2019-02-16T04:19:41.253Z,65.70
2019-02-16T04:20:15.638Z,65.70
2019-02-16T04:20:50.265Z,65.67
2019-02-16T04:21:24.760Z,65.73
2019-02-16T04:21:59.092Z,65.83
2019-02-16T04:22:33.418Z,65.75
2019-02-16T04:23:07.742Z,65.57
2019-02-16T04:23:42.080Z,65.60
2019-02-16T04:24:16.828Z,65.61
2019-02-16T04:24:51.462Z,65.62
2019-02-16T04:25:25.800Z,65.92
2019-02-16T04:26:00.166Z,66.04
2019-02-16T04:26:34.491Z,66.20
2019-02-16T04:27:09.354Z,66.28
2019-02-16T04:27:44.342Z,66.49
2019-02-16T04:28:18.739Z,66.65
2019-02-16T04:28:53.434Z,66.48
2019-02-16T04:29:28.273Z,66.54
2019-02-16T04:30:03.155Z,66.42
2019-02-16T04:30:37.489Z,66.57
2019-02-16T04:31:12.178Z,66.50
2019-02-16T04:31:46.535Z,66.79
2019-02-16T04:32:20.910Z,66.46
2019-02-16T04:32:55.251Z,66.27
2019-02-16T04:33:29.890Z,66.33
2019-02-16T04:34:04.476Z,66.64
2019-02-16T04:34:39.084Z,66.87
2019-02-16T04:35:13.810Z,66.89
2019-02-16T04:35:48.512Z,67.55
2019-02-16T04:36:22.925Z,68.14
2019-02-16T04:36:57.518Z,68.53
2019-02-16T04:37:32.432Z,68.65
2019-02-16T04:38:06.859Z,68.51
2019-02-16T04:38:41.449Z,68.52
2019-02-16T04:39:15.903Z,68.63
2019-02-16T04:39:50.275Z,68.54
2019-02-16T04:40:24.972Z,68.63
2019-02-16T04:40:59.854Z,68.65
2019-02-16T04:41:34.255Z,68.68
2019-02-16T04:42:08.873Z,68.81
2019-02-16T04:42:43.511Z,68.92
2019-02-16T04:43:17.867Z,68.86
2019-02-16T04:43:52.242Z,68.76
2019-02-16T04:44:27.068Z,68.60
2019-02-16T04:45:01.752Z,68.63
2019-02-16T04:45:36.110Z,68.56
2019-02-16T04:46:10.500Z,68.67
2019-02-16T04:46:45.168Z,68.68
2019-02-16T04:47:19.962Z,68.21
2019-02-16T04:47:54.578Z,67.92
2019-02-16T04:48:28.925Z,68.09
2019-02-16T04:49:03.280Z,68.08
2019-02-16T04:49:37.639Z,67.82
2019-02-16T04:50:12.227Z,67.76
2019-02-16T04:50:46.609Z,67.87
2019-02-16T04:51:21.072Z,67.76
2019-02-16T04:51:55.465Z,67.89
2019-02-16T04:52:34.680Z,68.01
2019-02-16T04:53:06.118Z,68.11
2019-02-16T04:53:40.480Z,68.06
2019-02-16T04:54:14.890Z,68.10
2019-02-16T04:54:49.394Z,68.04
2019-02-16T04:55:23.780Z,67.79
2019-02-16T04:55:58.396Z,67.75
2019-02-16T04:56:32.862Z,67.48
2019-02-16T04:57:07.483Z,67.60
2019-02-16T04:57:41.830Z,67.55
2019-02-16T04:58:16.227Z,67.65
2019-02-16T04:58:50.627Z,67.62
2019-02-16T04:59:25.286Z,67.64
2019-02-16T04:59:59.610Z,67.70
2019-02-16T05:00:34.218Z,67.73
2019-02-16T05:01:08.556Z,67.78
2019-02-16T05:01:43.232Z,67.85
2019-02-16T05:02:18.233Z,67.97
2019-02-16T05:02:52.618Z,68.06
2019-02-16T05:03:27.230Z,67.96
2019-02-16T05:04:01.837Z,67.88
2019-02-16T05:04:36.406Z,67.72
2019-02-16T05:05:10.999Z,67.64
2019-02-16T05:05:45.401Z,67.56
2019-02-16T05:06:20.074Z,67.51
2019-02-16T05:06:54.458Z,67.55
2019-02-16T05:07:29.079Z,67.60
2019-02-16T05:08:03.417Z,67.55
2019-02-16T05:08:37.767Z,67.58
2019-02-16T05:09:12.123Z,67.67
2019-02-16T05:09:46.500Z,67.66
2019-02-16T05:10:21.236Z,67.62
2019-02-16T05:10:55.851Z,67.64
2019-02-16T05:11:30.512Z,67.58
2019-02-16T05:12:05.110Z,67.56
2019-02-16T05:12:40.005Z,67.25
2019-02-16T05:13:14.642Z,67.22
2019-02-16T05:13:49.278Z,67.11
2019-02-16T05:14:23.644Z,67.03
2019-02-16T05:14:58.278Z,67.19
2019-02-16T05:15:32.634Z,67.44
2019-02-16T05:16:06.976Z,67.40
2019-02-16T05:16:41.631Z,67.40
2019-02-16T05:17:16.003Z,67.42
2019-02-16T05:17:50.384Z,67.38
2019-02-16T05:18:24.968Z,67.36
2019-02-16T05:18:59.324Z,67.37
2019-02-16T05:19:34.262Z,67.35
2019-02-16T05:20:08.602Z,67.39
2019-02-16T05:20:43.168Z,67.29
2019-02-16T05:21:17.538Z,67.24
2019-02-16T05:21:51.986Z,67.18
2019-02-16T05:22:26.927Z,67.23
2019-02-16T05:23:01.979Z,67.31
2019-02-16T05:23:36.560Z,67.28
2019-02-16T05:24:11.261Z,67.28
2019-02-16T05:24:45.698Z,67.24
2019-02-16T05:25:20.119Z,67.14
2019-02-16T05:25:54.469Z,67.27
2019-02-16T05:26:28.797Z,67.27
2019-02-16T05:27:03.191Z,67.16
2019-02-16T05:27:37.840Z,67.22
2019-02-16T05:28:12.448Z,67.23
2019-02-16T05:28:47.174Z,67.20
2019-02-16T05:29:21.765Z,67.27
2019-02-16T05:29:56.402Z,67.29
2019-02-16T05:30:31.010Z,67.29
2019-02-16T05:31:05.654Z,67.16
2019-02-16T05:31:40.261Z,67.14
2019-02-16T05:32:15.301Z,67.13
2019-02-16T05:32:49.692Z,67.01
2019-02-16T05:33:24.048Z,67.12
2019-02-16T05:33:58.976Z,67.22
2019-02-16T05:34:33.509Z,67.37
2019-02-16T05:35:08.128Z,67.48
2019-02-16T05:35:42.962Z,67.42
2019-02-16T05:36:17.347Z,67.31
2019-02-16T05:36:52.043Z,67.34
2019-02-16T05:37:26.674Z,67.28
2019-02-16T05:38:01.026Z,67.30
2019-02-16T05:38:35.651Z,67.28
2019-02-16T05:39:09.975Z,67.13
2019-02-16T05:39:44.330Z,67.07
2019-02-16T05:40:18.770Z,67.13
2019-02-16T05:40:53.403Z,67.04
2019-02-16T05:41:27.743Z,66.95
2019-02-16T05:42:02.148Z,66.82
2019-02-16T05:42:36.477Z,66.74
2019-02-16T05:43:11.038Z,66.71
2019-02-16T05:43:45.406Z,66.71
2019-02-16T05:44:19.853Z,66.76
2019-02-16T05:44:54.487Z,66.89
2019-02-16T05:45:29.071Z,66.95
2019-02-16T05:46:03.655Z,67.06
2019-02-16T05:46:38.007Z,67.08
2019-02-16T05:47:12.751Z,67.21
2019-02-16T05:47:47.162Z,67.26
2019-02-16T05:48:21.758Z,67.28
2019-02-16T05:48:56.394Z,67.23
2019-02-16T05:49:30.730Z,67.25
2019-02-16T05:50:05.173Z,67.33
2019-02-16T05:50:39.509Z,67.32
2019-02-16T05:51:13.884Z,67.38
2019-02-16T05:51:48.326Z,67.42
2019-02-16T05:52:22.685Z,67.57
2019-02-16T05:52:57.311Z,67.64
2019-02-16T05:53:31.667Z,67.57
2019-02-16T05:54:06.525Z,67.40
2019-02-16T05:54:40.868Z,67.39
2019-02-16T05:55:15.260Z,67.36
2019-02-16T05:55:49.658Z,67.25
2019-02-16T05:56:24.019Z,67.30
2019-02-16T05:56:58.391Z,67.28
2019-02-16T05:57:32.805Z,67.30
2019-02-16T05:58:07.719Z,67.32
2019-02-16T05:58:42.499Z,67.25
2019-02-16T05:59:16.864Z,67.08
2019-02-16T05:59:53.970Z,67.07
2019-02-16T06:00:30.008Z,67.05
2019-02-16T06:01:04.451Z,66.91
2019-02-16T06:01:38.796Z,66.95
2019-02-16T06:02:13.209Z,66.97
2019-02-16T06:02:47.592Z,66.97
2019-02-16T06:03:21.968Z,67.17
2019-02-16T06:03:56.604Z,67.26
2019-02-16T06:04:30.936Z,67.25
2019-02-16T06:05:05.705Z,67.36
2019-02-16T06:05:40.921Z,67.47
2019-02-16T06:06:15.472Z,67.50
2019-02-16T06:06:50.190Z,67.63
2019-02-16T06:07:25.190Z,67.72
2019-02-16T06:07:59.577Z,67.79
2019-02-16T06:08:33.890Z,67.78
2019-02-16T06:09:08.232Z,67.75
2019-02-16T06:09:42.577Z,67.63
2019-02-16T06:10:16.989Z,67.70
2019-02-16T06:10:51.636Z,67.70
2019-02-16T06:11:26.247Z,67.70
2019-02-16T06:12:00.616Z,67.83
2019-02-16T06:12:35.758Z,67.81
2019-02-16T06:13:10.336Z,67.83
2019-02-16T06:13:44.727Z,67.93
2019-02-16T06:14:19.136Z,67.97
2019-02-16T06:14:53.525Z,67.97
2019-02-16T06:15:27.854Z,68.07
2019-02-16T06:16:02.465Z,68.09
2019-02-16T06:16:36.830Z,68.12
2019-02-16T06:17:11.335Z,68.20
2019-02-16T06:17:45.729Z,68.14
2019-02-16T06:18:20.741Z,68.01
2019-02-16T06:18:55.373Z,68.06
2019-02-16T06:19:29.741Z,68.06
2019-02-16T06:20:04.129Z,68.04
2019-02-16T06:20:38.471Z,68.13
2019-02-16T06:21:13.364Z,68.21
2019-02-16T06:21:47.761Z,68.23
2019-02-16T06:22:22.188Z,68.16
2019-02-16T06:23:03.694Z,68.09
2019-02-16T06:23:32.577Z,68.21
2019-02-16T06:24:07.161Z,68.23
2019-02-16T06:24:41.493Z,68.13
2019-02-16T06:25:15.890Z,68.11
2019-02-16T06:25:50.283Z,68.22
2019-02-16T06:26:24.685Z,68.28
2019-02-16T06:26:59.014Z,68.35
2019-02-16T06:27:33.659Z,68.33
2019-02-16T06:28:08.296Z,68.28
2019-02-16T06:28:42.681Z,68.25
2019-02-16T06:29:17.099Z,68.10
2019-02-16T06:29:51.795Z,68.03
2019-02-16T06:30:26.235Z,68.04
2019-02-16T06:31:00.835Z,68.05
2019-02-16T06:31:35.180Z,67.94
2019-02-16T06:32:09.517Z,67.93
2019-02-16T06:32:44.226Z,67.95
2019-02-16T06:33:18.860Z,67.96
2019-02-16T06:33:53.534Z,67.99
2019-02-16T06:34:28.117Z,67.73
2019-02-16T06:35:30.356Z,67.69
2019-02-16T06:36:11.302Z,67.62
2019-02-16T06:36:45.776Z,67.51
2019-02-16T06:37:24.476Z,67.62
2019-02-16T06:37:59.059Z,67.76
2019-02-16T06:38:33.436Z,67.78
2019-02-16T06:39:08.034Z,67.84
2019-02-16T06:39:42.613Z,67.87
2019-02-16T06:40:16.975Z,67.80
2019-02-16T06:40:51.322Z,67.87
2019-02-16T06:41:25.672Z,67.95
2019-02-16T06:42:00.613Z,68.01
2019-02-16T06:42:35.550Z,67.95
2019-02-16T06:43:09.975Z,67.69
2019-02-16T06:43:44.351Z,67.53
2019-02-16T06:44:18.868Z,67.30
2019-02-16T06:44:53.219Z,67.18
2019-02-16T06:45:27.801Z,67.23
2019-02-16T06:46:02.138Z,67.02
2019-02-16T06:46:36.486Z,66.99
2019-02-16T06:47:10.808Z,66.85
2019-02-16T06:47:45.490Z,66.90
2019-02-16T06:48:20.129Z,66.99
2019-02-16T06:48:54.477Z,67.10
2019-02-16T06:49:29.103Z,67.15
2019-02-16T06:50:03.703Z,67.15
2019-02-16T06:50:38.040Z,67.14
2019-02-16T06:51:12.687Z,67.09
2019-02-16T06:51:47.390Z,66.91
2019-02-16T06:52:22.112Z,66.72
2019-02-16T06:52:56.480Z,66.76
2019-02-16T06:53:31.154Z,67.07
2019-02-16T06:54:05.581Z,67.27
2019-02-16T06:54:40.179Z,67.13
2019-02-16T06:55:14.534Z,67.15
2019-02-16T06:56:02.296Z,67.03
2019-02-16T06:56:44.750Z,67.08
2019-02-16T06:57:22.963Z,67.06
2019-02-16T06:57:57.350Z,66.85
2019-02-16T06:58:32.368Z,66.68
2019-02-16T06:59:06.986Z,66.72
2019-02-16T06:59:41.563Z,66.73
2019-02-16T07:00:17.674Z,66.46
2019-02-16T07:00:52.041Z,66.20
2019-02-16T07:01:26.382Z,66.39
2019-02-16T07:02:00.708Z,66.39
2019-02-16T07:02:35.360Z,66.48
2019-02-16T07:03:09.728Z,66.54
2019-02-16T07:03:44.805Z,66.65
2019-02-16T07:04:19.583Z,66.69
2019-02-16T07:04:53.907Z,66.64
2019-02-16T07:05:28.288Z,66.79
2019-02-16T07:06:02.926Z,66.86
2019-02-16T07:06:37.320Z,66.81
2019-02-16T07:07:11.662Z,66.73
2019-02-16T07:07:46.101Z,66.48
2019-02-16T07:08:20.784Z,66.53
2019-02-16T07:08:55.145Z,66.44
2019-02-16T07:09:29.481Z,66.34
2019-02-16T07:10:04.129Z,66.22
2019-02-16T07:10:38.466Z,66.21
2019-02-16T07:11:12.803Z,66.31
2019-02-16T07:11:47.147Z,66.39
2019-02-16T07:12:21.669Z,66.44
2019-02-16T07:12:56.018Z,66.45
2019-02-16T07:13:30.619Z,66.54
2019-02-16T07:14:05.270Z,66.50
2019-02-16T07:14:39.619Z,66.26
2019-02-16T07:15:14.358Z,66.36
2019-02-16T07:16:07.701Z,66.42
2019-02-16T07:17:10.233Z,66.34
2019-02-16T07:17:51.847Z,66.50
2019-02-16T07:18:32.105Z,66.63
2019-02-16T07:19:34.768Z,66.95
2019-02-16T07:20:09.487Z,67.00
2019-02-16T07:20:44.103Z,67.06
2019-02-16T07:21:18.540Z,66.98
2019-02-16T07:21:53.201Z,66.88
2019-02-16T07:22:27.895Z,66.86
2019-02-16T07:23:02.279Z,66.94
2019-02-16T07:23:36.619Z,66.87
2019-02-16T07:24:11.224Z,66.80
2019-02-16T07:24:45.595Z,66.92
2019-02-16T07:25:19.982Z,66.89
2019-02-16T07:25:54.882Z,66.84
2019-02-16T07:26:29.220Z,66.73
2019-02-16T07:27:03.933Z,66.68
2019-02-16T07:27:38.519Z,66.72
2019-02-16T07:28:13.072Z,66.69
2019-02-16T07:28:47.377Z,66.62
2019-02-16T07:29:22.311Z,66.58
2019-02-16T07:29:56.943Z,66.55
2019-02-16T07:30:31.317Z,66.46
2019-02-16T07:31:05.904Z,66.34
2019-02-16T07:31:40.483Z,66.27
2019-02-16T07:32:14.830Z,66.23
2019-02-16T07:32:49.195Z,66.02
2019-02-16T07:33:23.817Z,65.84
2019-02-16T07:33:58.466Z,65.82
2019-02-16T07:34:33.062Z,65.75
2019-02-16T07:35:08.018Z,65.60